MARCH 29, 2017

 

METAR SMJP 291800Z 04007KT 9999 FEW030TCU SCT040 32/23 Q1010 NOSIG=

METAR SMZO 291800Z 06008KT 9999 SCT035 31/22 Q1010 NOSIG=

METAR SMNI 291800Z 03016KT 5000 VCSH FEW020CB SCT025 29/24 Q1011=

METAR SMST 291800Z 00000KT 9999 FEW030 32/22 Q////=